Time;durP1;ratioP1;P1;durP2;ratioP2;P2;SDS_P1;SDS_P2;PMS_P1;PMS_P2;Temp;Humidity;BMP_temperature;BMP_pressure;BME280_temperature;BME280_humidity;BME280_pressure;Samples;Min_cycle;Max_cycle;Signal;HPM_P1;HPM_P2
2023/10/19 00:01:18;;;;;;;11.68;8.90;;;;;;;12.63;82.82;100092.94;5100822;28;20214;-63
2023/10/19 00:03:49;;;;;;;11.18;9.00;;;;;;;12.60;83.35;100087.13;5110925;28;20072;-63
2023/10/19 00:06:15;;;;;;;11.32;9.25;;;;;;;12.58;84.25;100087.31;5106293;28;20035;-63
2023/10/19 00:08:43;;;;;;;13.13;10.05;;;;;;;12.51;84.54;100086.31;5104426;28;20389;-63
2023/10/19 00:11:20;;;;;;;13.15;9.70;;;;;;;12.44;84.73;100086.09;5101060;28;20040;-63
2023/10/19 00:13:49;;;;;;;13.88;9.80;;;;;;;12.46;84.24;100077.97;5100870;28;20032;-63
2023/10/19 00:16:19;;;;;;;14.82;9.50;;;;;;;12.46;83.53;100070.84;5110609;28;20337;-63
2023/10/19 00:18:48;;;;;;;12.75;8.75;;;;;;;12.40;82.66;100074.16;5101609;28;20027;-63
2023/10/19 00:21:21;;;;;;;12.50;9.30;;;;;;;12.30;82.36;100072.66;5101269;28;20067;-63
2023/10/19 00:23:52;;;;;;;14.07;9.75;;;;;;;12.24;83.09;100071.50;5101759;28;20091;-63
2023/10/19 00:26:20;;;;;;;13.45;10.45;;;;;;;12.32;84.35;100070.66;5102078;28;20063;-63
2023/10/19 00:28:49;;;;;;;10.88;9.55;;;;;;;12.38;84.80;100065.53;5101866;28;20313;-63
2023/10/19 00:31:15;;;;;;;11.65;9.73;;;;;;;12.35;83.73;100057.88;5100954;28;20079;-63
2023/10/19 00:33:41;;;;;;;13.45;10.35;;;;;;;12.40;83.36;100055.56;5110891;28;20072;-63
2023/10/19 00:36:07;;;;;;;14.23;10.85;;;;;;;12.44;83.52;100056.91;5101333;28;20337;-64
2023/10/19 00:41:12;;;;;;;14.18;10.68;;;;;;;12.35;85.53;100049.91;5110601;28;20051;-64
2023/10/19 00:43:44;;;;;;;15.15;10.57;;;;;;;12.31;85.18;100043.28;5101703;28;20085;-64
2023/10/19 00:48:42;;;;;;;12.52;8.95;;;;;;;12.23;80.94;100045.09;5101659;28;20039;-64
2023/10/19 00:51:23;;;;;;;14.30;8.95;;;;;;;12.30;82.45;100041.63;5101102;28;20032;-64
2023/10/19 00:53:49;;;;;;;12.90;9.02;;;;;;;12.26;81.20;100044.78;5101863;28;20073;-64
2023/10/19 00:56:19;;;;;;;11.02;8.00;;;;;;;12.24;81.00;100036.97;5101141;28;20264;-64
2023/10/19 00:58:52;;;;;;;10.93;8.43;;;;;;;12.26;80.18;100040.31;5101400;28;20044;-64
2023/10/19 01:01:23;;;;;;;7.00;6.20;;;;;;;12.22;78.06;100035.47;5100665;28;20047;-63
2023/10/19 01:03:52;;;;;;;11.43;8.00;;;;;;;12.11;77.96;100029.50;5100370;28;20034;-63
2023/10/19 01:06:20;;;;;;;12.13;8.52;;;;;;;11.97;78.05;100039.94;5099969;28;20128;-64
2023/10/19 01:08:46;;;;;;;9.75;7.57;;;;;;;11.91;77.74;100033.47;5110358;28;20070;-63
2023/10/19 01:11:15;;;;;;;8.98;7.63;;;;;;;11.60;77.72;100035.03;5100982;28;20032;-64
2023/10/19 01:13:44;;;;;;;7.72;6.93;;;;;;;11.08;78.19;100022.69;5100443;28;20340;-63
2023/10/19 01:16:23;;;;;;;8.05;7.22;;;;;;;10.86;78.75;100025.91;5108461;28;20107;-64
2023/10/19 01:18:53;;;;;;;8.50;7.00;;;;;;;10.70;79.78;100029.28;5110526;28;20228;-64
2023/10/19 01:21:27;;;;;;;7.13;6.43;;;;;;;10.73;80.28;100030.78;5101611;28;20054;-63
2023/10/19 01:23:53;;;;;;;9.13;7.28;;;;;;;10.84;80.37;100023.41;5103461;28;20095;-63
2023/10/19 01:26:22;;;;;;;12.32;7.90;;;;;;;10.91;80.21;100017.47;5108062;28;20036;-63
2023/10/19 01:28:48;;;;;;;12.82;8.13;;;;;;;10.86;80.46;100017.94;5101626;28;20035;-65
2023/10/19 01:33:57;;;;;;;8.40;7.00;;;;;;;10.61;81.40;100009.03;5101028;28;20476;-64
2023/10/19 01:38:58;;;;;;;11.57;7.85;;;;;;;10.83;80.62;100016.44;5100365;28;20080;-64
2023/10/19 01:41:26;;;;;;;12.35;7.72;;;;;;;10.88;81.34;100010.69;5101152;28;20039;-64
2023/10/19 01:43:56;;;;;;;12.65;7.13;;;;;;;10.93;81.21;100012.84;5103982;28;20077;-64
2023/10/19 01:46:31;;;;;;;9.10;7.07;;;;;;;10.99;80.86;100017.53;5114129;28;20043;-64
2023/10/19 01:48:56;;;;;;;13.32;7.15;;;;;;;11.06;80.79;100019.38;5109583;28;20028;-63
2023/10/19 01:51:28;;;;;;;12.38;6.40;;;;;;;10.84;80.96;100019.94;5108322;28;20256;-65
2023/10/19 01:53:58;;;;;;;10.55;7.07;;;;;;;10.96;80.84;100025.78;5113278;28;20042;-64
2023/10/19 01:56:24;;;;;;;20.33;8.13;;;;;;;10.92;82.19;100012.03;5105523;28;20444;-65
2023/10/19 01:58:51;;;;;;;14.38;7.32;;;;;;;10.97;82.55;100015.03;5103822;28;20047;-65
2023/10/19 02:01:20;;;;;;;14.38;7.75;;;;;;;11.01;82.91;100021.66;5113140;28;20047;-65
2023/10/19 02:04:08;;;;;;;18.67;8.57;;;;;;;11.07;84.38;100020.22;5103011;28;20352;-65
2023/10/19 02:06:38;;;;;;;16.90;7.65;;;;;;;11.12;84.90;100012.63;5106022;28;20097;-65
2023/10/19 02:09:17;;;;;;;52.08;9.35;;;;;;;11.15;84.72;100013.13;5104432;28;20028;-65
2023/10/19 02:11:46;;;;;;;18.95;8.50;;;;;;;11.18;84.07;100022.59;5104329;28;20042;-65
2023/10/19 02:14:14;;;;;;;11.60;7.95;;;;;;;11.11;84.11;100019.72;5104100;28;20057;-65
2023/10/19 02:16:41;;;;;;;11.35;7.25;;;;;;;10.96;84.95;100012.53;5103924;28;20047;-65
2023/10/19 02:19:07;;;;;;;29.08;9.80;;;;;;;10.88;86.20;100022.09;5103827;28;20028;-65
2023/10/19 02:21:38;;;;;;;12.88;8.48;;;;;;;10.79;86.46;100020.41;5103699;28;20036;-65
2023/10/19 02:24:03;;;;;;;7.70;6.47;;;;;;;10.87;85.79;100019.63;5103793;28;20312;-65
2023/10/19 02:26:30;;;;;;;10.60;7.53;;;;;;;10.85;84.43;100011.81;5103945;28;20044;-65
2023/10/19 02:28:56;;;;;;;8.93;6.90;;;;;;;10.77;83.83;100013.59;5103754;28;20039;-65
2023/10/19 02:31:23;;;;;;;19.42;6.80;;;;;;;10.70;84.15;100021.34;5103324;28;20238;-65
2023/10/19 02:33:57;;;;;;;24.52;7.93;;;;;;;10.71;84.31;100019.50;5103939;28;20372;-64
2023/10/19 02:36:23;;;;;;;18.83;8.25;;;;;;;10.78;85.33;100029.34;5103515;28;20032;-64
2023/10/19 02:38:48;;;;;;;20.70;8.48;;;;;;;10.82;86.07;100025.38;5109152;28;20251;-65
2023/10/19 02:41:19;;;;;;;38.50;9.38;;;;;;;10.88;86.36;100032.69;5105940;28;20040;-66
2023/10/19 02:44:00;;;;;;;72.00;12.73;;;;;;;10.79;88.14;100027.50;5103686;28;20078;-64
2023/10/19 02:46:26;;;;;;;63.28;11.68;;;;;;;10.86;91.18;100028.53;5111573;28;20036;-65
2023/10/19 02:48:52;;;;;;;71.20;12.15;;;;;;;11.01;93.84;100031.44;5103470;28;20039;-65
2023/10/19 02:51:19;;;;;;;38.25;11.80;;;;;;;11.11;94.12;100035.63;5103522;28;20054;-66
2023/10/19 02:53:44;;;;;;;13.82;9.77;;;;;;;11.18;93.02;100027.88;5104346;28;20023;-65
2023/10/19 02:56:19;;;;;;;16.38;10.23;;;;;;;11.32;91.70;100040.53;5102458;28;20337;-65
2023/10/19 02:58:48;;;;;;;13.65;9.15;;;;;;;11.41;90.54;100030.78;5103684;28;20035;-65
2023/10/19 03:01:24;;;;;;;13.15;8.57;;;;;;;11.48;89.55;100026.53;5103388;28;20093;-65
2023/10/19 03:03:53;;;;;;;10.05;8.90;;;;;;;11.57;89.05;100028.22;5103412;28;20036;-65
2023/10/19 03:06:22;;;;;;;11.77;8.63;;;;;;;11.59;87.99;100034.19;5103302;28;20035;-66
2023/10/19 03:08:57;;;;;;;13.20;8.75;;;;;;;11.63;88.16;100032.03;5103639;28;20040;-65
2023/10/19 03:11:24;;;;;;;11.35;8.82;;;;;;;11.59;87.84;100036.00;5102865;28;20260;-65
2023/10/19 03:13:50;;;;;;;11.00;8.57;;;;;;;11.58;88.07;100026.41;5102941;28;20360;-65
2023/10/19 03:16:17;;;;;;;13.30;8.73;;;;;;;11.54;88.79;100031.19;5101695;28;20118;-65
2023/10/19 03:18:43;;;;;;;12.90;10.10;;;;;;;11.51;89.07;100031.53;5104746;28;20214;-65
2023/10/19 03:21:10;;;;;;;13.38;9.55;;;;;;;11.58;89.22;100027.22;5111868;28;20047;-65
2023/10/19 03:23:37;;;;;;;13.10;9.65;;;;;;;11.57;88.89;100036.19;5108385;28;20024;-65
2023/10/19 03:29:11;;;;;;;;;;;;;;;11.66;89.60;100031.72;4996484;28;20086;-65
2023/10/19 03:31:43;;;;;;;17.90;10.30;;;;;;;11.56;91.48;100025.72;4995802;28;20238;-65
2023/10/19 03:34:16;;;;;;;16.33;11.00;;;;;;;11.58;91.69;100029.88;5030240;28;20055;-63
2023/10/19 03:36:42;;;;;;;12.30;9.98;;;;;;;11.54;92.24;100033.03;5062519;28;20033;-65
2023/10/19 03:39:14;;;;;;;12.70;9.20;;;;;;;11.50;93.12;100033.34;5061775;28;20322;-65
2023/10/19 03:41:44;;;;;;;12.95;9.13;;;;;;;11.56;92.29;100023.91;5061993;28;20272;-65
2023/10/19 03:44:24;;;;;;;11.35;9.15;;;;;;;11.66;92.39;100032.56;5062206;28;20196;-65
2023/10/19 03:46:57;;;;;;;11.98;9.63;;;;;;;11.74;91.45;100024.63;5061230;28;20104;-65
2023/10/19 03:49:30;;;;;;;13.35;10.82;;;;;;;11.69;91.94;100021.63;5061492;28;20082;-66
2023/10/19 03:54:40;;;;;;;12.68;9.93;;;;;;;11.81;92.17;100025.66;5062878;28;20471;-65
2023/10/19 03:57:20;;;;;;;13.20;10.45;;;;;;;11.70;92.72;100017.97;5062115;28;20041;-65
2023/10/19 03:59:50;;;;;;;13.25;9.57;;;;;;;11.65;93.14;100014.16;5061227;28;20262;-65
2023/10/19 04:02:16;;;;;;;12.15;9.95;;;;;;;11.66;93.54;100014.00;5061650;28;20098;-65
2023/10/19 04:04:49;;;;;;;11.50;9.63;;;;;;;11.79;92.34;100009.06;5062154;28;20039;-65
2023/10/19 04:07:21;;;;;;;15.55;11.20;;;;;;;11.70;93.12;100009.19;5060359;28;20315;-65
2023/10/19 04:09:59;;;;;;;14.85;10.27;;;;;;;11.80;93.30;100016.03;5070350;28;20123;-65
2023/10/19 04:12:28;;;;;;;14.93;10.27;;;;;;;11.87;91.95;100013.56;5062250;28;20036;-65
2023/10/19 04:14:55;;;;;;;15.30;10.95;;;;;;;11.95;92.00;100018.03;5061887;28;20048;-65
2023/10/19 04:17:23;;;;;;;17.63;11.13;;;;;;;12.00;92.12;100016.56;5061479;28;20094;-65
2023/10/19 04:19:51;;;;;;;15.43;11.65;;;;;;;12.00;92.07;100016.56;5061466;28;20043;-64
2023/10/19 04:22:23;;;;;;;19.05;13.20;;;;;;;12.03;91.89;100024.19;5069848;28;20036;-65
2023/10/19 04:24:50;;;;;;;18.48;14.70;;;;;;;11.99;91.47;100014.91;5072263;28;20032;-65
2023/10/19 04:27:15;;;;;;;19.27;15.15;;;;;;;12.02;91.72;100019.88;5076085;28;20096;-64
2023/10/19 04:29:43;;;;;;;21.20;17.80;;;;;;;11.93;91.02;100018.22;5077446;28;20044;-65
2023/10/19 04:32:14;;;;;;;17.85;14.75;;;;;;;11.90;91.61;100025.66;5109779;28;20061;-65
2023/10/19 04:34:40;;;;;;;20.10;13.27;;;;;;;11.78;91.63;100030.47;5101897;28;20035;-65
2023/10/19 04:37:06;;;;;;;19.40;13.23;;;;;;;11.73;91.87;100022.13;5101785;28;20233;-65
2023/10/19 04:39:32;;;;;;;17.30;13.65;;;;;;;11.76;91.40;100022.63;5101208;28;20047;-65
2023/10/19 04:41:58;;;;;;;18.95;12.40;;;;;;;11.78;90.47;100018.03;5101140;28;20244;-65
2023/10/19 04:44:23;;;;;;;17.75;13.85;;;;;;;11.79;90.51;100024.16;5101066;28;20032;-65
2023/10/19 04:46:48;;;;;;;20.10;14.23;;;;;;;11.77;90.61;100021.66;5100549;28;20105;-65
2023/10/19 04:49:16;;;;;;;22.23;14.88;;;;;;;11.77;89.91;100026.13;5101244;28;20232;-65
2023/10/19 04:51:43;;;;;;;16.85;11.88;;;;;;;11.59;90.21;100020.94;5110036;28;20036;-65
2023/10/19 04:54:08;;;;;;;16.80;11.35;;;;;;;11.51;89.86;100016.44;5100733;28;20335;-65
2023/10/19 04:56:35;;;;;;;20.52;11.68;;;;;;;11.58;89.92;100021.91;5100657;28;20032;-65
2023/10/19 04:59:02;;;;;;;18.48;11.95;;;;;;;11.61;89.10;100024.25;5100955;28;20252;-65
2023/10/19 05:01:28;;;;;;;19.02;11.43;;;;;;;11.39;90.62;100028.28;5101037;28;20047;-65
2023/10/19 05:03:53;;;;;;;15.50;10.75;;;;;;;11.47;89.53;100023.06;5100637;28;20028;-65
2023/10/19 05:06:19;;;;;;;16.40;11.07;;;;;;;11.50;89.58;100029.84;5100521;28;20032;-65
2023/10/19 05:08:46;;;;;;;15.30;11.02;;;;;;;11.49;90.08;100029.03;5100714;28;20054;-65
2023/10/19 05:11:12;;;;;;;17.70;10.57;;;;;;;11.39;89.74;100033.59;5101074;28;20066;-65
2023/10/19 05:13:38;;;;;;;27.60;11.45;;;;;;;11.37;90.45;100035.59;5103462;28;20314;-65
2023/10/19 05:16:04;;;;;;;19.27;10.45;;;;;;;11.41;89.55;100039.56;5100695;28;20374;-65
2023/10/19 05:18:30;;;;;;;16.98;10.85;;;;;;;11.48;90.69;100034.50;5100249;28;20048;-65
2023/10/19 05:20:56;;;;;;;18.88;10.35;;;;;;;11.49;90.39;100041.47;5104763;28;20055;-65
2023/10/19 05:23:23;;;;;;;15.00;10.32;;;;;;;11.46;89.97;100042.59;5103840;28;20047;-65
2023/10/19 05:25:50;;;;;;;13.20;8.95;;;;;;;11.40;89.81;100048.53;5104538;28;20028;-65
2023/10/19 05:28:15;;;;;;;17.58;10.95;;;;;;;11.40;89.32;100045.88;5105026;28;20066;-65
2023/10/19 05:30:41;;;;;;;14.50;10.65;;;;;;;11.31;89.17;100049.47;5104970;28;20901;-65
2023/10/19 05:33:06;;;;;;;34.65;11.70;;;;;;;11.27;89.67;100047.31;5104818;28;20044;-65
2023/10/19 05:35:34;;;;;;;27.05;10.15;;;;;;;11.27;90.38;100034.03;5104578;28;20042;-65
2023/10/19 05:38:01;;;;;;;21.60;11.10;;;;;;;11.26;91.66;100054.44;5104864;28;20043;-64
2023/10/19 05:40:29;;;;;;;20.35;11.65;;;;;;;11.40;91.33;100040.56;5104515;28;20324;-65
2023/10/19 05:42:56;;;;;;;34.35;10.73;;;;;;;11.48;90.68;100053.06;5104345;28;20027;-65
2023/10/19 05:45:22;;;;;;;24.23;11.68;;;;;;;11.49;91.90;100054.72;5105361;28;20035;-65
2023/10/19 05:47:47;;;;;;;31.65;13.77;;;;;;;11.54;91.76;100056.88;5105340;28;20127;-66
2023/10/19 05:50:14;;;;;;;18.05;11.50;;;;;;;11.56;91.69;100050.44;5104550;28;20043;-65
2023/10/19 05:52:42;;;;;;;21.75;11.43;;;;;;;11.58;92.21;100048.44;5104885;28;20024;-65
2023/10/19 05:55:09;;;;;;;27.48;11.38;;;;;;;11.51;91.67;100042.13;5104390;28;20028;-65
2023/10/19 05:57:35;;;;;;;25.33;12.48;;;;;;;11.57;91.42;100046.78;5105101;28;20109;-65
2023/10/19 06:00:01;;;;;;;31.40;12.30;;;;;;;11.56;91.48;100045.13;5104323;28;20519;-65
2023/10/19 06:02:27;;;;;;;26.00;14.15;;;;;;;11.63;92.18;100045.31;5104291;28;20032;-65
2023/10/19 06:04:52;;;;;;;23.75;13.05;;;;;;;11.72;92.57;100044.34;5104446;28;20335;-65
2023/10/19 06:07:17;;;;;;;18.80;12.27;;;;;;;11.70;91.78;100046.31;5105434;28;20101;-65
2023/10/19 06:09:43;;;;;;;34.10;10.75;;;;;;;11.66;90.75;100048.47;5113493;28;20040;-65
2023/10/19 06:12:09;;;;;;;14.75;10.15;;;;;;;11.65;91.24;100056.59;5103571;28;20054;-65
2023/10/19 06:14:34;;;;;;;15.10;10.23;;;;;;;11.70;92.46;100057.75;5112333;28;20207;-65
2023/10/19 06:17:01;;;;;;;24.35;10.55;;;;;;;11.78;92.83;100054.34;5111632;28;20051;-66
2023/10/19 06:19:26;;;;;;;18.95;10.20;;;;;;;11.78;93.43;100055.16;5103387;28;20032;-65
2023/10/19 06:21:52;;;;;;;28.17;10.18;;;;;;;11.81;93.28;100059.31;5104591;28;20162;-65
2023/10/19 06:24:18;;;;;;;26.80;9.90;;;;;;;11.87;92.84;100049.88;5103204;28;20085;-66
2023/10/19 06:26:44;;;;;;;23.80;10.10;;;;;;;11.89;94.00;100046.06;5103436;28;20036;-66
2023/10/19 06:29:09;;;;;;;20.00;10.05;;;;;;;11.99;93.83;100057.34;5103930;28;20047;-66
2023/10/19 06:31:36;;;;;;;20.30;9.55;;;;;;;12.05;92.52;100054.06;5102699;28;20052;-66
2023/10/19 06:34:01;;;;;;;18.60;9.55;;;;;;;11.99;92.24;100057.34;5104264;28;20216;-65
2023/10/19 06:36:29;;;;;;;18.38;9.93;;;;;;;11.96;93.70;100056.84;5103579;28;20882;-66
2023/10/19 06:38:55;;;;;;;11.05;9.00;;;;;;;11.96;94.28;100057.69;5103508;28;20031;-65
2023/10/19 06:41:20;;;;;;;15.85;9.77;;;;;;;11.91;95.02;100051.22;5102969;28;20044;-66
2023/10/19 06:43:46;;;;;;;11.30;9.23;;;;;;;11.94;94.94;100046.41;5103321;28;20032;-65
2023/10/19 06:46:12;;;;;;;9.57;7.80;;;;;;;11.97;94.77;100059.34;5102942;28;20032;-65
2023/10/19 06:48:38;;;;;;;11.57;8.77;;;;;;;12.06;95.14;100055.72;5103155;28;20341;-65
2023/10/19 06:51:05;;;;;;;12.25;8.30;;;;;;;12.18;93.72;100050.91;5103705;28;20044;-66
2023/10/19 06:53:31;;;;;;;10.95;8.73;;;;;;;12.30;93.53;100051.41;5103998;28;20040;-65
2023/10/19 06:55:56;;;;;;;10.57;9.15;;;;;;;12.38;93.01;100060.22;5103542;28;20293;-65
2023/10/19 06:58:26;;;;;;;11.40;9.68;;;;;;;12.38;93.24;100054.06;5102977;28;20111;-65
2023/10/19 07:01:00;;;;;;;11.02;8.80;;;;;;;12.41;93.00;100043.94;5103982;28;20085;-65
2023/10/19 07:03:28;;;;;;;40.60;20.65;;;;;;;12.32;94.59;100050.25;5103366;28;20099;-63
2023/10/19 07:05:53;;;;;;;54.30;24.85;;;;;;;12.32;92.67;100049.44;5102833;28;20106;-63
2023/10/19 07:08:20;;;;;;;42.88;22.15;;;;;;;12.30;93.86;100049.59;5102926;28;20070;-63
2023/10/19 07:10:46;;;;;;;42.08;22.00;;;;;;;12.19;95.53;100051.75;5102920;28;20326;-63
2023/10/19 07:13:12;;;;;;;35.78;17.85;;;;;;;12.40;96.57;100052.09;5102585;28;20034;-63
2023/10/19 07:15:37;;;;;;;28.55;15.60;;;;;;;12.41;97.24;100053.75;5102665;28;20035;-63
2023/10/19 07:18:03;;;;;;;22.15;12.50;;;;;;;12.26;97.95;100047.44;5103238;27;20039;-65
2023/10/19 07:20:29;;;;;;;32.40;18.20;;;;;;;12.31;97.34;100051.25;5102292;28;20069;-65
2023/10/19 07:22:56;;;;;;;23.95;15.02;;;;;;;12.48;96.75;100044.09;5102437;28;20042;-65
2023/10/19 07:25:22;;;;;;;23.90;15.38;;;;;;;12.40;97.04;100039.63;5102500;28;20036;-63
2023/10/19 07:27:52;;;;;;;28.10;17.65;;;;;;;12.51;97.54;100040.31;5102154;28;20063;-63
2023/10/19 07:30:25;;;;;;;25.60;15.23;;;;;;;12.67;96.19;100045.63;5101414;28;20056;-63
2023/10/19 07:32:54;;;;;;;13.23;11.10;;;;;;;12.47;97.90;100037.97;5104505;28;20031;-64
2023/10/19 07:35:20;;;;;;;14.65;11.32;;;;;;;12.24;99.02;100034.31;5107535;28;20051;-65
2023/10/19 07:37:48;;;;;;;12.32;10.70;;;;;;;12.41;98.88;100037.81;5102327;28;20369;-65
2023/10/19 07:40:13;;;;;;;14.70;11.02;;;;;;;12.44;99.25;100030.34;5101541;28;20063;-66
2023/10/19 07:42:40;;;;;;;13.13;10.57;;;;;;;12.66;98.83;100041.31;5101259;28;20519;-64
2023/10/19 07:45:11;;;;;;;12.95;10.98;;;;;;;12.87;98.06;100033.63;5110182;28;20321;-65
2023/10/19 07:47:40;;;;;;;14.20;10.48;;;;;;;13.10;95.26;100029.22;5102658;28;20334;-65
2023/10/19 07:50:15;;;;;;;15.85;11.90;;;;;;;13.37;94.02;100035.97;5110958;28;20297;-65
2023/10/19 07:52:43;;;;;;;13.85;10.93;;;;;;;13.57;93.84;100031.09;5102043;28;20044;-65
2023/10/19 07:55:09;;;;;;;16.42;12.48;;;;;;;13.87;93.16;100028.59;5101394;28;20032;-65
2023/10/19 07:57:34;;;;;;;16.48;13.10;;;;;;;14.10;92.24;100031.25;5102620;28;20399;-65
2023/10/19 08:00:00;;;;;;;19.27;14.68;;;;;;;14.19;91.06;100022.19;5105380;28;20040;-65
2023/10/19 08:02:25;;;;;;;19.55;14.82;;;;;;;14.35;90.06;100022.06;5107349;28;20036;-65
2023/10/19 08:04:51;;;;;;;18.70;15.35;;;;;;;14.54;89.05;100020.75;5102373;28;20035;-64
2023/10/19 08:07:17;;;;;;;22.35;16.30;;;;;;;14.66;87.26;100017.50;5102168;28;20210;-64
2023/10/19 08:09:43;;;;;;;18.60;14.00;;;;;;;14.68;87.03;100020.81;5107882;28;20035;-65
2023/10/19 08:12:09;;;;;;;16.60;14.18;;;;;;;14.70;84.69;100017.97;5105864;28;20051;-65
2023/10/19 08:14:35;;;;;;;22.88;13.88;;;;;;;14.84;85.34;100017.16;5101323;28;20351;-65
2023/10/19 08:17:00;;;;;;;17.08;13.27;;;;;;;14.98;84.91;100013.69;5100823;28;20040;-64
2023/10/19 08:19:27;;;;;;;16.67;12.32;;;;;;;15.08;83.90;100024.06;5101373;28;20063;-63
2023/10/19 08:21:53;;;;;;;19.65;13.30;;;;;;;15.17;83.16;100024.78;5108629;28;20050;-63
2023/10/19 08:24:20;;;;;;;17.15;12.50;;;;;;;15.25;82.88;100024.69;5110136;28;20058;-64
2023/10/19 08:26:46;;;;;;;16.27;11.18;;;;;;;15.27;81.23;100023.50;5101707;28;20314;-63
2023/10/19 08:29:15;;;;;;;14.52;11.68;;;;;;;15.29;81.85;100021.47;5102299;28;20036;-63
2023/10/19 08:31:41;;;;;;;14.00;10.38;;;;;;;15.46;82.18;100013.25;5100910;28;20043;-63
2023/10/19 08:34:11;;;;;;;13.35;10.07;;;;;;;15.47;80.33;100006.91;5102063;28;20031;-63
2023/10/19 08:36:40;;;;;;;15.93;10.73;;;;;;;15.46;80.18;100000.75;5102919;28;20035;-63
2023/10/19 08:39:11;;;;;;;13.05;11.05;;;;;;;15.33;81.49;100004.06;5102401;28;20059;-64
2023/10/19 08:41:39;;;;;;;14.20;10.80;;;;;;;15.21;80.34;100004.75;5100637;28;20279;-63
2023/10/19 08:44:11;;;;;;;17.88;10.63;;;;;;;15.29;80.14;99996.63;5111092;28;20248;-63
2023/10/19 08:46:47;;;;;;;15.65;10.75;;;;;;;15.45;81.13;99990.25;5100967;28;20118;-64
2023/10/19 08:49:14;;;;;;;14.93;11.60;;;;;;;15.46;81.51;99992.75;5101115;28;20035;-64
2023/10/19 08:51:44;;;;;;;13.43;10.90;;;;;;;15.51;81.75;99994.84;5101174;28;20199;-64
2023/10/19 08:54:11;;;;;;;15.10;11.52;;;;;;;15.49;81.87;100003.03;5103668;28;20146;-63
2023/10/19 08:56:37;;;;;;;15.88;11.18;;;;;;;15.54;80.07;99994.47;5105300;28;20102;-64
2023/10/19 08:59:02;;;;;;;15.40;11.13;;;;;;;15.61;80.54;99987.44;5108346;28;20039;-64
2023/10/19 09:01:28;;;;;;;15.90;12.32;;;;;;;15.71;81.32;99987.94;5112112;28;20043;-64
2023/10/19 09:03:58;;;;;;;14.90;12.00;;;;;;;15.79;81.09;99979.00;5105271;28;20419;-64
2023/10/19 09:06:24;;;;;;;18.02;13.25;;;;;;;15.78;80.87;99969.31;5105816;28;20264;-64
2023/10/19 09:08:49;;;;;;;15.23;12.48;;;;;;;15.86;80.55;99961.19;5104796;28;20150;-64
2023/10/19 09:11:15;;;;;;;17.02;12.82;;;;;;;16.02;80.91;99960.09;5104520;28;20040;-64
2023/10/19 09:13:48;;;;;;;20.20;13.18;;;;;;;16.10;79.82;99960.78;5104635;28;20330;-64
2023/10/19 09:16:18;;;;;;;16.30;11.45;;;;;;;16.14;78.21;99962.06;5104451;28;20067;-65
2023/10/19 09:18:44;;;;;;;17.60;11.68;;;;;;;16.20;77.68;99953.28;5113558;28;20035;-65
2023/10/19 09:21:23;;;;;;;15.27;11.00;;;;;;;16.17;77.40;99960.84;5104961;28;20039;-64
2023/10/19 09:23:53;;;;;;;15.27;10.75;;;;;;;16.08;76.94;99956.66;5105275;28;20036;-64
2023/10/19 09:26:21;;;;;;;14.38;11.10;;;;;;;15.99;78.25;99947.13;5106154;28;20035;-65
2023/10/19 09:28:51;;;;;;;16.45;10.25;;;;;;;15.80;76.51;99946.75;5104885;28;20032;-64
2023/10/19 09:31:18;;;;;;;11.68;9.68;;;;;;;15.91;76.02;99940.06;5104695;28;20085;-64
2023/10/19 09:33:45;;;;;;;12.05;9.35;;;;;;;16.02;74.82;99928.88;5104397;28;20356;-66
2023/10/19 09:36:14;;;;;;;14.48;10.13;;;;;;;16.11;75.40;99934.91;5104101;28;20313;-67
2023/10/19 09:38:53;;;;;;;14.68;10.60;;;;;;;16.12;74.93;99934.72;5103838;28;20337;-66
2023/10/19 09:41:21;;;;;;;12.88;9.32;;;;;;;16.06;75.27;99926.66;5104921;28;20050;-66
2023/10/19 09:43:49;;;;;;;14.70;11.00;;;;;;;15.99;75.77;99925.75;5104498;28;20374;-66
2023/10/19 09:46:29;;;;;;;15.70;10.82;;;;;;;15.89;76.81;99929.59;5104746;28;20034;-65
2023/10/19 09:48:55;;;;;;;14.30;10.35;;;;;;;15.92;76.90;99928.38;5104521;28;20044;-65
2023/10/19 09:51:22;;;;;;;14.48;9.98;;;;;;;15.95;77.52;99923.47;5104683;28;20044;-65
2023/10/19 09:54:27;;;;;;;13.15;10.20;;;;;;;16.04;77.58;99905.47;5105803;28;20024;-65
2023/10/19 09:57:12;;;;;;;10.95;7.97;;;;;;;15.93;75.89;99908.66;5104635;28;20039;-65
2023/10/19 09:59:40;;;;;;;11.70;8.27;;;;;;;15.87;76.93;99912.09;5117046;28;20028;-65
2023/10/19 10:02:10;;;;;;;12.13;8.73;;;;;;;15.99;74.97;99907.06;5103267;28;20043;-65
2023/10/19 10:04:36;;;;;;;9.70;7.78;;;;;;;15.99;73.71;99907.06;5103201;28;20024;-64
2023/10/19 10:07:04;;;;;;;12.68;7.95;;;;;;;16.05;75.00;99893.78;5103855;28;20338;-65
2023/10/19 10:09:29;;;;;;;10.68;7.30;;;;;;;16.10;75.10;99885.16;5103559;28;20102;-65
2023/10/19 10:11:56;;;;;;;9.05;6.93;;;;;;;15.94;72.48;99888.94;5103497;28;20067;-65
2023/10/19 10:14:25;;;;;;;9.88;6.82;;;;;;;15.95;71.42;99887.94;5102974;28;20038;-65
2023/10/19 10:17:01;;;;;;;9.18;6.45;;;;;;;16.04;71.19;99891.28;5103661;28;20337;-65
2023/10/19 10:19:27;;;;;;;11.07;7.63;;;;;;;16.13;72.35;99882.94;5103187;28;20039;-65
2023/10/19 10:22:20;;;;;;;12.55;8.57;;;;;;;16.14;72.48;99876.56;5103365;28;20223;-65
2023/10/19 10:24:46;;;;;;;10.73;8.33;;;;;;;16.24;73.21;99865.53;5103741;28;20225;-65
2023/10/19 10:27:18;;;;;;;10.18;7.75;;;;;;;16.33;72.72;99876.91;5103734;28;20545;-65
2023/10/19 10:29:59;;;;;;;9.93;7.43;;;;;;;16.36;71.50;99877.34;5103924;28;20044;-65
2023/10/19 10:32:43;;;;;;;9.23;7.05;;;;;;;16.43;71.06;99882.72;5104144;28;20152;-65
2023/10/19 10:35:09;;;;;;;8.32;6.78;;;;;;;16.59;70.34;99875.22;5106070;28;20102;-65
2023/10/19 10:37:37;;;;;;;10.75;8.75;;;;;;;16.66;71.62;99869.13;5103889;28;20073;-65
2023/10/19 10:40:05;;;;;;;13.18;9.15;;;;;;;16.83;72.24;99857.91;5103632;28;20044;-65
2023/10/19 10:42:31;;;;;;;10.18;7.63;;;;;;;16.94;71.56;99867.19;5104187;28;20039;-65
2023/10/19 10:44:56;;;;;;;11.20;8.23;;;;;;;17.01;69.73;99865.38;5102586;28;20249;-66
2023/10/19 10:47:24;;;;;;;11.73;7.97;;;;;;;17.10;70.21;99861.50;5102880;28;20342;-65
2023/10/19 10:49:51;;;;;;;10.93;7.85;;;;;;;17.09;69.10;99859.00;5103228;28;20265;-65
2023/10/19 10:52:36;;;;;;;11.82;8.23;;;;;;;17.11;68.57;99846.25;5104004;28;20059;-65
2023/10/19 10:55:11;;;;;;;11.38;8.60;;;;;;;17.09;68.45;99845.63;5102824;28;20079;-65
2023/10/19 10:57:36;;;;;;;12.55;8.75;;;;;;;16.94;69.20;99842.31;5107917;28;20069;-65
2023/10/19 11:00:15;;;;;;;13.77;8.25;;;;;;;16.75;68.94;99834.00;5106536;28;20099;-65
2023/10/19 11:02:43;;;;;;;13.68;9.80;;;;;;;16.66;69.83;99834.38;5102434;28;20119;-65
2023/10/19 11:05:13;;;;;;;11.25;8.20;;;;;;;16.76;69.57;99824.13;5102689;28;20036;-65
2023/10/19 11:07:39;;;;;;;10.63;7.38;;;;;;;16.80;68.45;99825.38;5101155;28;20032;-65
2023/10/19 11:10:05;;;;;;;9.95;8.20;;;;;;;16.88;68.53;99819.84;5102853;28;20060;-65
2023/10/19 11:12:32;;;;;;;10.73;7.85;;;;;;;16.84;67.82;99814.09;5101889;28;20109;-65
2023/10/19 11:14:59;;;;;;;10.52;7.70;;;;;;;16.79;67.33;99826.41;5101756;28;20333;-65
2023/10/19 11:17:30;;;;;;;10.35;7.25;;;;;;;16.69;67.87;99810.75;5101629;28;20039;-65
2023/10/19 11:19:57;;;;;;;12.52;8.77;;;;;;;16.68;68.54;99802.91;5101653;28;20019;-65
2023/10/19 11:22:26;;;;;;;12.32;8.15;;;;;;;16.73;68.09;99801.28;5101482;28;20218;-65
2023/10/19 11:24:56;;;;;;;11.48;8.38;;;;;;;16.71;69.31;99806.00;5101597;28;20356;-65
2023/10/19 11:27:28;;;;;;;13.93;9.07;;;;;;;16.77;69.50;99801.72;5101532;28;20044;-65
2023/10/19 11:30:04;;;;;;;12.53;9.20;;;;;;;16.80;69.56;99793.28;5101967;28;20040;-65
2023/10/19 11:32:38;;;;;;;11.50;7.47;;;;;;;16.73;69.32;99776.41;5101827;28;20067;-65
2023/10/19 11:35:04;;;;;;;11.90;8.35;;;;;;;16.84;69.51;99779.31;5101449;28;20043;-65
2023/10/19 11:37:29;;;;;;;11.40;7.88;;;;;;;16.98;68.87;99776.69;5103221;28;20043;-65
2023/10/19 11:39:55;;;;;;;11.68;8.30;;;;;;;17.02;67.99;99762.69;5107991;28;20029;-65